• Join FlightAware (Why Join?)
  • Login
  • US Flag 
04:50PM EDT


 

Airport Tracker/Info


-or-


 

Live Flight TrackerFlight Track Log ✈ EJM826 ✈ 26-Jul-2013 ✈ KHOU - KSAN

Flight Track Log - Related Links

Times and Time Zones

All times are in EDT time to prevent confusion due to time zone crossing. See the EJM826 flight status page for this flight to view local times or setup timezone preferences in your user account.

Time Position Orientation Groundspeed Altitude Reporting Facility
EDT Latitude Longitude Course Direction KTS MPH feet Rate Location/Type
09:37AM 29.6292 -95.2683 222° Southwest 143 165 600  Level Houston Center
09:39AM 29.5819 -95.3181 222° Southwest 198 228 3,300 2,220 Climbing Houston Center
09:40AM 29.5989 -95.3944 284° West 239 275 6,100 2,100 Climbing Houston Center
09:41AM 29.6186 -95.4536 291° West 231 266 7,700 1,620 Climbing Houston Center
09:42AM 29.6489 -95.5325 294° West 262 302 9,400 1,680 Climbing Houston Center
09:43AM 29.6864 -95.6203 296° West 297 342 11,200 1,860 Climbing Houston Center
09:44AM 29.7228 -95.7072 296° West 302 348 13,300 1,440 Climbing Houston Center
09:45AM 29.7728 -95.8208 297° West 333 383 14,200 900 Climbing Houston Center
09:46AM 29.8144 -95.9225 295° West 350 403 15,200 1,140 Climbing Houston Center
09:47AM 29.8606 -96.0300 296° West 372 428 16,600 1,380 Climbing Houston Center
09:48AM 29.9047 -96.1339 296° West 366 421 18,100 1,500 Climbing Houston Center
09:49AM 29.9375 -96.2361 290° West 353 406 19,800 1,560 Climbing Houston Center
09:50AM 29.9450 -96.3717 274° West 354 407 21,400 1,260 Climbing Houston Center
09:51AM 29.9519 -96.4847 274° West 356 410 22,500 960 Climbing Houston Center
09:52AM 29.9636 -96.6003 277° West 363 418 23,500 900 Climbing Houston Center
09:53AM 29.9889 -96.7164 284° West 373 429 24,400 900 Climbing Houston Center
09:54AM 30.0131 -96.8328 284° West 375 432 25,400 960 Climbing Houston Center
09:55AM 30.0372 -96.9514 283° West 382 440 26,400 900 Climbing Houston Center
09:56AM 30.0672 -97.0956 284° West 387 445 27,300 780 Climbing Houston Center
09:57AM 30.0919 -97.2172 283° West 391 450 28,100 720 Climbing Houston Center
09:58AM 30.1194 -97.3506 283° West 396 456 28,800 720 Climbing Houston Center
09:59AM 30.1450 -97.4781 283° West 402 463 29,600 660 Climbing Houston Center
10:00AM 30.1708 -97.6072 283° West 406 467 30,200 540 Climbing Houston Center
10:01AM 30.1975 -97.7386 283° West 412 474 30,800 600 Climbing Houston Center
10:02AM 30.2269 -97.8833 283° West 417 480 31,500 600 Climbing Houston Center
10:03AM 30.2569 -98.0136 285° West 421 484 32,100 720 Climbing Houston Center
10:05AM 30.2892 -98.1564 285° West 427 491 33,000 720 Climbing Houston Center
10:06AM 30.3144 -98.2714 284° West 425 489 33,600 900 Climbing Houston Center
10:07AM 30.3478 -98.4275 284° West 423 487 34,900 960 Climbing Houston Center
10:08AM 30.3781 -98.5606 285° West 421 484 35,600 780 Climbing Houston Center
10:09AM 30.4061 -98.6939 284° West 422 486 36,600 960 Climbing Houston Center
10:10AM 30.4350 -98.8253 284° West 417 480 37,600 900 Climbing Houston Center
10:11AM 30.4644 -98.9572 285° West 418 481 38,500 720 Climbing Houston Center
10:12AM 30.4925 -99.0903 284° West 420 483 39,100 720 Climbing Houston Center
10:13AM 30.5239 -99.2339 284° West 421 484 40,000 420 Climbing Houston Center
10:14AM 30.5525 -99.3681 284° West 428 493 40,000  Level Houston Center
10:15AM 30.5825 -99.5086 284° West 447 514 40,000  Level Houston Center
10:16AM 30.6139 -99.6525 284° West 458 527 40,000  Level Houston Center
10:17AM 30.6425 -99.7967 283° West 459 528 40,000  Level Houston Center
10:18AM 30.6792 -99.9725 284° West 471 542 40,000  Level Houston Center
10:19AM 30.7111 -100.1206 284° West 490 564 40,000  Level Houston Center
10:20AM 30.7397 -100.2639 283° West 462 532 40,000  Level Houston Center
10:21AM 30.7708 -100.4119 284° West 475 547 40,000  Level Houston Center
10:22AM 30.7997 -100.5617 283° West 480 552 40,000  Level Houston Center
10:23AM 30.8358 -100.7353 284° West 470 541 40,000  Level Houston Center
10:24AM 30.8642 -100.8811 283° West 471 542 40,000  Level Houston Center
10:25AM 30.8917 -101.0286 282° West 489 563 40,000  Level Houston Center
10:26AM 30.9236 -101.1678 285° West 461 531 40,000  Level Houston Center
10:27AM 30.9522 -101.3353 281° West 452 520 40,000  Level Houston Center
10:28AM 30.9819 -101.4839 283° West 463 533 40,000  Level Houston Center
10:29AM 31.0100 -101.6294 283° West 462 532 40,000  Level Houston Center
10:30AM 31.0386 -101.7758 283° West 458 527 40,000  Level Houston Center
10:31AM 31.0653 -101.9200 282° West 457 526 40,000  Level Houston Center
10:32AM 31.0928 -102.0675 282° West 458 527 40,000  Level Houston Center
10:33AM 31.1189 -102.2169 282° West 461 531 40,000  Level Houston Center
10:34AM 31.1422 -102.3308 283° West 468 539 40,000  Level Albuquerque Center
10:35AM 31.1700 -102.4800 282° West 468 539 40,000  Level Albuquerque Center
10:36AM 31.1947 -102.6164 282° West 469 540 40,000  Level Albuquerque Center
10:37AM 31.2275 -102.7939 282° West 467 537 40,000  Level Albuquerque Center
10:38AM 31.2553 -102.9414 282° West 465 535 40,000  Level Albuquerque Center
10:39AM 31.2814 -103.0878 282° West 462 532 40,000  Level Albuquerque Center
10:40AM 31.3078 -103.2344 282° West 462 532 40,000  Level Albuquerque Center
10:41AM 31.3344 -103.3822 282° West 463 533 40,000  Level Albuquerque Center
10:42AM 31.3597 -103.5283 281° West 461 531 40,000  Level Albuquerque Center
10:43AM 31.3917 -103.7044 282° West 461 531 40,000  Level Albuquerque Center
10:44AM 31.4133 -103.8292 282° West 461 531 40,000  Level Albuquerque Center
10:45AM 31.4450 -104.0039 282° West 460 529 40,000  Level Albuquerque Center
10:46AM 31.4694 -104.1497 281° West 459 528 40,000  Level Albuquerque Center
10:47AM 31.4944 -104.2967 281° West 461 531 40,000  Level Albuquerque Center
10:48AM 31.5200 -104.4431 282° West 461 531 40,000  Level Albuquerque Center
10:50AM 31.5442 -104.5894 281° West 461 531 40,000  Level Albuquerque Center
10:51AM 31.5697 -104.7353 282° West 460 529 40,000  Level Albuquerque Center
10:52AM 31.5989 -104.9100 281° West 459 528 40,000  Level Albuquerque Center
10:53AM 31.6228 -105.0550 281° West 457 526 40,000  Level Albuquerque Center
10:54AM 31.6458 -105.2022 280° West 460 529 40,000  Level Albuquerque Center
10:55AM 31.6700 -105.3461 281° West 458 527 40,000  Level Albuquerque Center
10:56AM 31.6933 -105.4903 281° West 454 522 40,000 -60 Level Albuquerque Center
10:57AM 31.7208 -105.6642 281° West 454 522 39,900  Descending Albuquerque Center
10:58AM 31.7439 -105.8100 281° West 456 525 40,000  Climbing Albuquerque Center
10:59AM 31.7667 -105.9553 280° West 455 524 40,000  Level Albuquerque Center
11:00AM 31.7892 -106.0997 280° West 453 521 40,000  Level Albuquerque Center
11:01AM 31.8136 -106.2436 281° West 453 521 40,000  Level Albuquerque Center
11:02AM 31.8281 -106.4258 275° West 465 535 40,000  Level Albuquerque Center
11:03AM 31.8386 -106.5781 275° West 463 533 40,000  Level Albuquerque Center
11:04AM 31.8503 -106.7319 275° West 456 525 40,000  Level Albuquerque Center
11:05AM 31.8614 -106.8844 275° West 456 525 40,000  Level Albuquerque Center
11:06AM 31.8717 -107.0289 275° West 455 524 40,000  Level Albuquerque Center
11:07AM 31.8817 -107.1781 275° West 456 525 40,000  Level Albuquerque Center
11:08AM 31.8922 -107.3272 275° West 456 525 40,000  Level Albuquerque Center
11:09AM 31.9019 -107.4775 274° West 457 526 40,000  Level Albuquerque Center
11:10AM 31.9111 -107.6253 274° West 453 521 40,000  Level Albuquerque Center
11:11AM 31.9225 -107.8056 274° West 457 526 40,000  Level Albuquerque Center
11:12AM 31.9325 -107.9550 275° West 457 526 40,000  Level Albuquerque Center
11:13AM 31.9572 -108.1369 279° West 462 532 40,000  Level Albuquerque Center
11:15AM 31.9917 -108.2797 286° West 454 522 40,000  Level Albuquerque Center
11:16AM 32.0253 -108.4233 285° West 455 524 40,000  Level Albuquerque Center
11:17AM 32.0603 -108.5669 286° West 456 525 40,000  Level Albuquerque Center
11:18AM 32.0942 -108.7103 286° West 455 524 40,000  Level Albuquerque Center
11:19AM 32.1272 -108.8542 285° West 453 521 40,000  Level Albuquerque Center
11:20AM 32.1664 -109.0250 285° West 450 518 40,000  Level Albuquerque Center
11:21AM 32.1997 -109.1683 285° West 451 519 40,000  Level Albuquerque Center
11:22AM 32.2331 -109.3122 285° West 452 520 40,000  Level Albuquerque Center
11:23AM 32.2650 -109.4550 285° West 450 518 40,000  Level Albuquerque Center
11:24AM 32.2981 -109.5997 285° West 453 521 40,000  Level Albuquerque Center
11:25AM 32.3308 -109.7442 285° West 455 524 40,000  Level Albuquerque Center
11:26AM 32.3683 -109.9175 284° West 453 521 40,000  Level Albuquerque Center
11:27AM 32.4028 -110.0633 286° West 456 525 40,000  Level Albuquerque Center
11:28AM 32.4367 -110.2097 285° West 461 531 40,000  Level Albuquerque Center
11:29AM 32.4694 -110.3544 285° West 459 528 40,000  Level Albuquerque Center
11:30AM 32.5006 -110.4981 284° West 456 525 40,000  Level Albuquerque Center
11:31AM 32.5328 -110.6422 285° West 454 522 40,000  Level Albuquerque Center
11:32AM 32.5708 -110.8169 285° West 454 522 40,000  Level Albuquerque Center
11:33AM 32.6014 -110.9622 284° West 455 524 40,000  Level Albuquerque Center
11:34AM 32.6333 -111.1072 285° West 455 524 40,000  Level Albuquerque Center
11:35AM 32.6642 -111.2544 284° West 458 527 40,000  Level Albuquerque Center
11:36AM 32.6950 -111.3961 285° West 448 516 40,000  Level Albuquerque Center
11:37AM 32.7250 -111.5406 284° West 449 517 40,000  Level Albuquerque Center
11:38AM 32.7556 -111.6858 284° West 453 521 40,000  Level Albuquerque Center
11:39AM 32.7911 -111.8606 284° West 453 521 40,000 -240 Level Albuquerque Center
11:40AM 32.8214 -112.0069 284° West 455 524 39,600 -660 Descending Albuquerque Center
11:41AM 32.8517 -112.1533 284° West 455 524 38,700 -960 Descending Albuquerque Center
11:42AM 32.8800 -112.3011 283° West 451 519 37,700 -960 Descending Albuquerque Center
11:43AM 32.9092 -112.4436 284° West 447 514 36,800 -900 Descending Albuquerque Center
11:45AM 32.9383 -112.5856 284° West 445 512 35,900 -1,020 Descending Albuquerque Center
11:46AM 32.9461 -112.7556 273° West 439 505 34,800 -1,020 Descending Albuquerque Center
11:47AM 32.9264 -112.8983 261° West 440 506 33,900 -420 Descending Albuquerque Center
11:48AM 32.9069 -113.0358 260° West 432 497 34,000  Climbing Albuquerque Center
11:49AM 32.8886 -113.1744 261° West 428 493 34,000  Level Albuquerque Center
11:50AM 32.8686 -113.3181 261° West 438 504 34,000  Level Albuquerque Center
11:51AM 32.8442 -113.4950 261° West 451 519 34,000  Level Albuquerque Center
11:52AM 32.8242 -113.6511 261° West 456 525 34,000  Level Los Angeles Center
11:53AM 32.7978 -113.8333 260° West 464 534 34,000  Level Los Angeles Center
11:54AM 32.7764 -114.0150 262° West 466 536 34,000  Level Los Angeles Center
11:55AM 32.7767 -114.1692 270° West 469 540 34,000  Level Los Angeles Center
11:56AM 32.7758 -114.3244 270° West 470 541 34,000 -480 Level Los Angeles Center
11:57AM 32.7722 -114.4806 268° West 472 543 33,100 -1,200 Descending Los Angeles Center
11:59AM 32.7686 -114.6675 269° West 473 544 31,100 -1,680 Descending Los Angeles Center
12:00PM 32.7642 -114.8517 268° West 467 537 29,000 -1,980 Descending Los Angeles Center
12:01PM 32.7600 -115.0381 269° West 471 542 27,000 -1,860 Descending Los Angeles Center
12:02PM 32.7569 -115.1939 269° West 474 545 25,200 -1,740 Descending Los Angeles Center
12:03PM 32.7519 -115.3486 268° West 469 540 23,500 -1,680 Descending Los Angeles Center
12:04PM 32.7486 -115.5036 269° West 470 541 21,800 -1,740 Descending Los Angeles Center
12:05PM 32.7517 -115.6564 271° West 463 533 20,000 -1,860 Descending Los Angeles Center
12:06PM 32.7492 -115.8078 269° West 459 528 18,000 -2,040 Descending Los Angeles Center
12:07PM 32.7453 -115.9872 269° West 450 518 15,800 -1,800 Descending Los Angeles Center
12:08PM 32.7486 -116.1208 272° West 406 467 14,000 -1,800 Descending Los Angeles Center
12:09PM 32.7472 -116.2589 269° West 353 406 11,800 -1,920 Descending Los Angeles Center
12:10PM 32.7417 -116.3725 267° West 344 396 10,000 -1,020 Descending Los Angeles Center
12:11PM 32.7356 -116.4872 266° West 341 392 9,800 -120 Descending Los Angeles Center
12:12PM 32.7219 -116.5917 261° West 318 366 9,800 -840 Level Los Angeles Center
12:13PM 32.7114 -116.6869 263° West 299 344 8,100 -1,620 Descending Los Angeles Center
12:14PM 32.7086 -116.7969 268° West 280 322 6,500 -1,560 Descending Los Angeles Center
12:15PM 32.6858 -116.8856 253° West 283 326 4,900 -1,200 Descending Los Angeles Center
12:17PM 32.6775 -116.9644 263° West 258 297 4,100 -1,020 Descending Los Angeles Center
12:18PM 32.6947 -117.0306 287° West 218 251 2,800 -1,140 Descending Los Angeles Center
12:19PM 32.7167 -117.1000 291° West 180 207 1,700 -840 Descending Southern California TRACON
12:20PM 32.7183 -117.1297 274° West 172 198 1,100 -720 Descending Los Angeles Center
12:21PM 32.7331 -117.1831 288° West 148 170 300 -780 Descending Los Angeles Center
12:23PM 32.7333 -117.1833 281° West  Level FlightAware Approximate
12:30PM 32.7336 -117.1897 281° West  Level Estimated